This is the latest recevied weather packets stored in our database for station/object DB0TGO-10. If no packets are shown the sender has not sent any weather packets the latest 10 day(s).
| Time | Temp. | Humidity | Pressure | Rain* | Wind** | Luminosity | Snow |
|---|---|---|---|---|---|---|---|
| 1777551888 | 20.56° C | 30% | 1031.4 hPa | 0 mm | - | - | - |
| 1777548729 | 18.89° C | 34% | 1032.1 hPa | 0 mm | - | - | - |
| 1777545686 | 18.33° C | 35% | 1032.6 hPa | 0 mm | - | - | - |
| 1777542560 | 17.78° C | 34% | 1033.1 hPa | 0 mm | - | - | - |
| 1777539521 | 16.11° C | 32% | 1033.2 hPa | 0 mm | - | - | - |
| 1777536466 | 13.89° C | 38% | 1033.6 hPa | 0 mm | - | - | - |
| 1777533615 | 12.22° C | 41% | 1033.9 hPa | 0 mm | - | - | - |
| 1777530351 | 8.33° C | 57% | 1033.8 hPa | 0 mm | - | - | - |
| 1777527076 | 6.67° C | 68% | 1033.6 hPa | 0 mm | - | - | - |
| 1777524221 | 4.44° C | 91% | 1033.5 hPa | 0 mm | - | - | - |
| 1777521381 | 0.56° C | 94% | 1033.4 hPa | 0 mm | - | - | - |
| 1777518006 | 1.11° C | 92% | 1033.1 hPa | 0 mm | - | - | - |
| 1777514636 | 1.67° C | 88% | 1032.9 hPa | 0 mm | - | - | - |
| 1777511410 | 2.22° C | 78% | 1032.7 hPa | 0 mm | - | - | - |
| 1777508454 | 3.33° C | 74% | 1033 hPa | 0 mm | - | - | - |
| 1777504991 | 2.78° C | 74% | 1033 hPa | 0 mm | - | - | - |
| 1777501876 | 3.33° C | 78% | 1032.6 hPa | 0 mm | - | - | - |
| 1777495261 | 5.56° C | 63% | 1032 hPa | 0 mm | - | - | - |
| 1777491749 | 7.22° C | 56% | 1031.7 hPa | 0 mm | - | - | - |
| 1777488626 | 11.11° C | 42% | 1031.1 hPa | 0 mm | - | - | - |
| 1777485391 | 13.89° C | 34% | 1030.9 hPa | 0 mm | - | - | - |
| 1777482041 | 15.56° C | 29% | 1030.5 hPa | 0 mm | - | - | - |
| 1777479041 | 16.11° C | 28% | 1030.4 hPa | 0 mm | - | - | - |
| 1777475515 | 16.11° C | 28% | 1030.5 hPa | 0 mm | - | - | - |
| 1777472051 | 16.11° C | 26% | 1030.6 hPa | 0 mm | - | - | - |
* Rain latest hour (hover to see other rain measurements)
** Current wind speed in m/s (hover to see current wind gust speed)